Marstons Mills, MA

2:36 PM EST on March 04, 2015 (GMT -0500)
Cape Cod Airport | Change Station
CLOSE
Current Station
Personal Weather Station
Location: Barnstable Town, MA
Elevation: 82 ft
Nearby Weather Stations
Active Advisory: Winter Weather Advisory Active Notice: Public Information Statement

Elev 82 ft 41.69 °N, 70.43 °W | Updated 2 seconds ago

Overcast
Overcast
39.9 °F
Feels Like 40 °F
N
0.0
Wind Variable Wind from SW
Gusts 2.5 mph

Today
High -- | Low -- °F
--% Chance of Precip.
Yesterday
High -- | Low -- °F
Precip. -- in
6:12 AM 5:35 PM
Waxing Gibbous, 99% visible
Pressure 29.79 in
Visibility 5.0 miles
Clouds Overcast 700 ft
Windchill 40 °F
Dew Point 36 °F
Humidity 84%
Rainfall 0.37 in
Snow Depth Not available.
UV 1 out of 12
Pollen .50 out of 12
Air Quality Not available.
Flu Activity Not available.
METAR KFMH 041915Z 24010KT 5SM BR OVC007 02/01 A2979 RMK AO2 FZRANO

More Conditions Fewer Conditions

Pressure 29.79 in
Visibility 5.0 miles
Clouds Overcast 700 ft
Windchill 40 °F
Dew Point 36 °F
Humidity 84%
Rainfall 0.37 in
Snow Depth Not available.
UV 1 out of 12
Pollen .50 out of 12
Air Quality Not available.
Flu Activity Not available.
METAR KFMH 041915Z 24010KT 5SM BR OVC007 02/01 A2979 RMK AO2 FZRANO

More Conditions Fewer Conditions

10-Day Weather Forecast

Almanac

Astronomy

Mar. 04, 2015 Rise Set
Actual Time
Civil Twilight
Nautical Twilight
Astronomical Twilight
Moon
Length of Visible Light
Length of Day
Tomorrow will be .
, % of the Moon is Illuminated

Today's Extremes

State Highs State Lows

Community

WunderPhotos

Upload Photos

1,802,559 photos uploaded!

WunderBlogs® & News

Nearby

Air Quality

  Air Quality AQ Index Pollutant
Not available.

Snow Depth

Station Depth Elevation

Earthquake Activity

City Distance Mag. Time & Date
Minimum magnitude displayed is 2.5.

Coastal Water Temperatures

Place Temperature

Nearby Weather Stations

Winter Weather Advisory
Statement as of 2:32 PM EST on March 04, 2015

... Winter Weather Advisory in effect from 7 PM this evening to
7 PM EST Thursday...

The National Weather Service in Taunton has issued a Winter
Weather Advisory... which is in effect from 7 PM this evening to 7
PM EST Thursday. The Winter Storm Watch is no longer in effect.

* Locations... southern Rhode Island and south coastal
Massachusetts.

* Hazard types... snow.

* Accumulations... 2 to 5 inches of snow.

* Timing... rain will change to snow tonight and continue through
early Thursday afternoon.

* Impacts... slower than normal travel due to slippery roads.

* Visibilities... one half mile at times.

Precautionary/preparedness actions...

A Winter Weather Advisory is issued for minor snow accumulations
which can have an affect on travel. Allow extra travel time and be
alert for slippery roads... especially on bridges and overpasses.




For the latest updates... please visit our webpage at
www.Weather.Gov/Boston

You can follow US on facebook at
www.Facebook.Com/nwsboston